sensor_id;sensor_type;location;lat;lon;timestamp;P1;durP1;ratioP1;P2;durP2;ratioP2
13419;SDS011;6781;58.440;15.470;2022-09-03T00:02:18;1.90;;;0.93;;
13419;SDS011;6781;58.440;15.470;2022-09-03T00:04:52;0.90;;;0.80;;
13419;SDS011;6781;58.440;15.470;2022-09-03T00:07:27;0.60;;;0.60;;
13419;SDS011;6781;58.440;15.470;2022-09-03T00:10:01;1.23;;;0.85;;
13419;SDS011;6781;58.440;15.470;2022-09-03T00:12:35;1.63;;;0.73;;
13419;SDS011;6781;58.440;15.470;2022-09-03T00:15:06;0.60;;;0.60;;
13419;SDS011;6781;58.440;15.470;2022-09-03T00:17:36;1.38;;;0.88;;
13419;SDS011;6781;58.440;15.470;2022-09-03T00:20:09;1.05;;;0.90;;
13419;SDS011;6781;58.440;15.470;2022-09-03T00:22:40;0.95;;;0.70;;
13419;SDS011;6781;58.440;15.470;2022-09-03T00:25:12;0.73;;;0.73;;
13419;SDS011;6781;58.440;15.470;2022-09-03T00:27:43;0.60;;;0.60;;
13419;SDS011;6781;58.440;15.470;2022-09-03T00:30:15;0.60;;;0.60;;
13419;SDS011;6781;58.440;15.470;2022-09-03T00:32:43;3.15;;;1.00;;
13419;SDS011;6781;58.440;15.470;2022-09-03T00:35:15;1.13;;;0.75;;
13419;SDS011;6781;58.440;15.470;2022-09-03T00:37:49;0.60;;;0.60;;
13419;SDS011;6781;58.440;15.470;2022-09-03T00:40:20;0.82;;;0.82;;
13419;SDS011;6781;58.440;15.470;2022-09-03T00:42:59;0.80;;;0.80;;
13419;SDS011;6781;58.440;15.470;2022-09-03T00:45:38;0.90;;;0.70;;
13419;SDS011;6781;58.440;15.470;2022-09-03T00:48:14;0.82;;;0.80;;
13419;SDS011;6781;58.440;15.470;2022-09-03T00:50:52;1.48;;;1.02;;
13419;SDS011;6781;58.440;15.470;2022-09-03T00:53:38;0.75;;;0.75;;
13419;SDS011;6781;58.440;15.470;2022-09-03T00:56:12;1.63;;;0.90;;
13419;SDS011;6781;58.440;15.470;2022-09-03T00:58:53;0.77;;;0.77;;
13419;SDS011;6781;58.440;15.470;2022-09-03T01:01:30;0.85;;;0.60;;
13419;SDS011;6781;58.440;15.470;2022-09-03T01:04:08;1.55;;;0.80;;
13419;SDS011;6781;58.440;15.470;2022-09-03T01:06:49;0.65;;;0.65;;
13419;SDS011;6781;58.440;15.470;2022-09-03T01:09:29;0.68;;;0.68;;
13419;SDS011;6781;58.440;15.470;2022-09-03T01:12:04;1.25;;;0.82;;
13419;SDS011;6781;58.440;15.470;2022-09-03T01:14:42;2.05;;;0.80;;
13419;SDS011;6781;58.440;15.470;2022-09-03T01:17:25;0.70;;;0.70;;
13419;SDS011;6781;58.440;15.470;2022-09-03T01:20:06;0.60;;;0.60;;
13419;SDS011;6781;58.440;15.470;2022-09-03T01:22:58;1.23;;;0.80;;
13419;SDS011;6781;58.440;15.470;2022-09-03T01:25:53;0.77;;;0.77;;
13419;SDS011;6781;58.440;15.470;2022-09-03T01:28:39;2.60;;;0.80;;
13419;SDS011;6781;58.440;15.470;2022-09-03T01:31:22;2.25;;;1.05;;
13419;SDS011;6781;58.440;15.470;2022-09-03T01:33:59;2.42;;;1.23;;
13419;SDS011;6781;58.440;15.470;2022-09-03T01:36:40;0.70;;;0.70;;
13419;SDS011;6781;58.440;15.470;2022-09-03T01:39:19;0.70;;;0.70;;
13419;SDS011;6781;58.440;15.470;2022-09-03T01:41:57;4.55;;;0.80;;
13419;SDS011;6781;58.440;15.470;2022-09-03T01:44:44;1.95;;;0.70;;
13419;SDS011;6781;58.440;15.470;2022-09-03T01:47:35;0.65;;;0.65;;
13419;SDS011;6781;58.440;15.470;2022-09-03T01:50:19;1.05;;;0.77;;
13419;SDS011;6781;58.440;15.470;2022-09-03T01:53:01;1.15;;;0.80;;
13419;SDS011;6781;58.440;15.470;2022-09-03T01:55:35;0.93;;;0.60;;
13419;SDS011;6781;58.440;15.470;2022-09-03T01:58:16;0.50;;;0.50;;
13419;SDS011;6781;58.440;15.470;2022-09-03T02:00:49;1.05;;;0.75;;
13419;SDS011;6781;58.440;15.470;2022-09-03T02:03:23;0.60;;;0.60;;
13419;SDS011;6781;58.440;15.470;2022-09-03T02:08:41;1.35;;;0.73;;
13419;SDS011;6781;58.440;15.470;2022-09-03T02:11:09;0.88;;;0.63;;
13419;SDS011;6781;58.440;15.470;2022-09-03T02:13:37;2.05;;;0.50;;
13419;SDS011;6781;58.440;15.470;2022-09-03T02:16:09;0.50;;;0.50;;
13419;SDS011;6781;58.440;15.470;2022-09-03T02:18:40;1.17;;;0.50;;
13419;SDS011;6781;58.440;15.470;2022-09-03T02:21:10;0.60;;;0.60;;
13419;SDS011;6781;58.440;15.470;2022-09-03T02:23:39;0.65;;;0.65;;
13419;SDS011;6781;58.440;15.470;2022-09-03T02:26:07;1.20;;;0.60;;
13419;SDS011;6781;58.440;15.470;2022-09-03T02:28:37;1.88;;;0.65;;
13419;SDS011;6781;58.440;15.470;2022-09-03T02:31:04;0.55;;;0.52;;
13419;SDS011;6781;58.440;15.470;2022-09-03T02:33:34;1.00;;;0.80;;
13419;SDS011;6781;58.440;15.470;2022-09-03T02:36:03;0.50;;;0.50;;
13419;SDS011;6781;58.440;15.470;2022-09-03T02:38:31;0.93;;;0.70;;
13419;SDS011;6781;58.440;15.470;2022-09-03T02:40:59;0.60;;;0.60;;
13419;SDS011;6781;58.440;15.470;2022-09-03T02:43:26;0.60;;;0.60;;
13419;SDS011;6781;58.440;15.470;2022-09-03T02:46:00;0.63;;;0.63;;
13419;SDS011;6781;58.440;15.470;2022-09-03T02:48:29;1.00;;;0.60;;
13419;SDS011;6781;58.440;15.470;2022-09-03T02:50:58;0.95;;;0.60;;
13419;SDS011;6781;58.440;15.470;2022-09-03T02:53:25;0.38;;;0.38;;
13419;SDS011;6781;58.440;15.470;2022-09-03T02:55:56;1.40;;;0.68;;
13419;SDS011;6781;58.440;15.470;2022-09-03T02:58:23;0.38;;;0.38;;
13419;SDS011;6781;58.440;15.470;2022-09-03T03:00:51;0.50;;;0.50;;
13419;SDS011;6781;58.440;15.470;2022-09-03T03:03:19;0.70;;;0.65;;
13419;SDS011;6781;58.440;15.470;2022-09-03T03:05:48;0.57;;;0.57;;
13419;SDS011;6781;58.440;15.470;2022-09-03T03:08:18;0.70;;;0.70;;
13419;SDS011;6781;58.440;15.470;2022-09-03T03:10:50;0.50;;;0.50;;
13419;SDS011;6781;58.440;15.470;2022-09-03T03:13:18;3.30;;;0.68;;
13419;SDS011;6781;58.440;15.470;2022-09-03T03:15:45;0.50;;;0.50;;
13419;SDS011;6781;58.440;15.470;2022-09-03T03:18:13;0.60;;;0.60;;
13419;SDS011;6781;58.440;15.470;2022-09-03T03:20:43;0.70;;;0.70;;
13419;SDS011;6781;58.440;15.470;2022-09-03T03:23:12;0.50;;;0.50;;
13419;SDS011;6781;58.440;15.470;2022-09-03T03:25:40;0.80;;;0.60;;
13419;SDS011;6781;58.440;15.470;2022-09-03T03:28:07;0.52;;;0.52;;
13419;SDS011;6781;58.440;15.470;2022-09-03T03:30:36;0.70;;;0.70;;
13419;SDS011;6781;58.440;15.470;2022-09-03T03:33:04;0.80;;;0.55;;
13419;SDS011;6781;58.440;15.470;2022-09-03T03:35:31;2.63;;;0.70;;
13419;SDS011;6781;58.440;15.470;2022-09-03T03:37:58;0.47;;;0.47;;
13419;SDS011;6781;58.440;15.470;2022-09-03T03:40:26;1.75;;;0.60;;
13419;SDS011;6781;58.440;15.470;2022-09-03T03:42:56;0.50;;;0.50;;
13419;SDS011;6781;58.440;15.470;2022-09-03T03:45:22;0.60;;;0.60;;
13419;SDS011;6781;58.440;15.470;2022-09-03T03:47:49;0.50;;;0.50;;
13419;SDS011;6781;58.440;15.470;2022-09-03T03:50:16;1.02;;;0.60;;
13419;SDS011;6781;58.440;15.470;2022-09-03T03:52:43;0.50;;;0.50;;
13419;SDS011;6781;58.440;15.470;2022-09-03T03:55:11;0.60;;;0.60;;
13419;SDS011;6781;58.440;15.470;2022-09-03T03:57:38;0.50;;;0.50;;
13419;SDS011;6781;58.440;15.470;2022-09-03T04:00:07;0.70;;;0.70;;
13419;SDS011;6781;58.440;15.470;2022-09-03T04:02:35;0.50;;;0.50;;
13419;SDS011;6781;58.440;15.470;2022-09-03T04:05:02;0.88;;;0.73;;
13419;SDS011;6781;58.440;15.470;2022-09-03T04:07:29;0.63;;;0.63;;
13419;SDS011;6781;58.440;15.470;2022-09-03T04:09:56;0.75;;;0.50;;
13419;SDS011;6781;58.440;15.470;2022-09-03T04:12:23;0.63;;;0.63;;
13419;SDS011;6781;58.440;15.470;2022-09-03T04:14:52;0.60;;;0.60;;
13419;SDS011;6781;58.440;15.470;2022-09-03T04:17:20;0.68;;;0.68;;
13419;SDS011;6781;58.440;15.470;2022-09-03T04:19:47;0.50;;;0.50;;
13419;SDS011;6781;58.440;15.470;2022-09-03T04:22:15;0.80;;;0.75;;
13419;SDS011;6781;58.440;15.470;2022-09-03T04:24:43;0.65;;;0.52;;
13419;SDS011;6781;58.440;15.470;2022-09-03T04:27:10;2.05;;;0.70;;
13419;SDS011;6781;58.440;15.470;2022-09-03T04:29:37;0.60;;;0.60;;
13419;SDS011;6781;58.440;15.470;2022-09-03T04:32:04;0.60;;;0.60;;
13419;SDS011;6781;58.440;15.470;2022-09-03T04:35:01;0.50;;;0.50;;
13419;SDS011;6781;58.440;15.470;2022-09-03T04:37:28;0.60;;;0.60;;
13419;SDS011;6781;58.440;15.470;2022-09-03T04:39:55;2.88;;;0.70;;
13419;SDS011;6781;58.440;15.470;2022-09-03T04:42:23;0.70;;;0.68;;
13419;SDS011;6781;58.440;15.470;2022-09-03T04:44:50;0.60;;;0.60;;
13419;SDS011;6781;58.440;15.470;2022-09-03T04:47:16;1.48;;;0.40;;
13419;SDS011;6781;58.440;15.470;2022-09-03T04:49:44;1.05;;;0.60;;
13419;SDS011;6781;58.440;15.470;2022-09-03T04:52:12;0.60;;;0.60;;
13419;SDS011;6781;58.440;15.470;2022-09-03T04:54:39;0.60;;;0.60;;
13419;SDS011;6781;58.440;15.470;2022-09-03T04:57:06;0.50;;;0.50;;
13419;SDS011;6781;58.440;15.470;2022-09-03T04:59:33;0.50;;;0.50;;
13419;SDS011;6781;58.440;15.470;2022-09-03T05:02:00;0.68;;;0.68;;
13419;SDS011;6781;58.440;15.470;2022-09-03T05:04:27;2.00;;;0.80;;
13419;SDS011;6781;58.440;15.470;2022-09-03T05:06:54;1.83;;;0.70;;
13419;SDS011;6781;58.440;15.470;2022-09-03T05:09:23;1.77;;;0.73;;
13419;SDS011;6781;58.440;15.470;2022-09-03T05:11:49;0.60;;;0.60;;
13419;SDS011;6781;58.440;15.470;2022-09-03T05:14:16;0.90;;;0.60;;
13419;SDS011;6781;58.440;15.470;2022-09-03T05:16:43;1.20;;;0.70;;
13419;SDS011;6781;58.440;15.470;2022-09-03T05:19:10;1.60;;;0.70;;
13419;SDS011;6781;58.440;15.470;2022-09-03T05:21:37;2.78;;;0.70;;
13419;SDS011;6781;58.440;15.470;2022-09-03T05:24:04;1.63;;;0.80;;
13419;SDS011;6781;58.440;15.470;2022-09-03T05:26:35;0.80;;;0.70;;
13419;SDS011;6781;58.440;15.470;2022-09-03T05:29:03;0.63;;;0.63;;
13419;SDS011;6781;58.440;15.470;2022-09-03T05:31:33;0.60;;;0.60;;
13419;SDS011;6781;58.440;15.470;2022-09-03T05:34:03;0.63;;;0.63;;
13419;SDS011;6781;58.440;15.470;2022-09-03T05:36:35;0.50;;;0.50;;
13419;SDS011;6781;58.440;15.470;2022-09-03T05:39:03;0.60;;;0.60;;
13419;SDS011;6781;58.440;15.470;2022-09-03T05:41:32;1.75;;;1.15;;
13419;SDS011;6781;58.440;15.470;2022-09-03T05:44:00;1.17;;;0.57;;
13419;SDS011;6781;58.440;15.470;2022-09-03T05:46:29;0.68;;;0.68;;
13419;SDS011;6781;58.440;15.470;2022-09-03T05:48:57;1.83;;;0.60;;
13419;SDS011;6781;58.440;15.470;2022-09-03T05:51:25;0.63;;;0.63;;
13419;SDS011;6781;58.440;15.470;2022-09-03T05:53:52;1.05;;;0.60;;
13419;SDS011;6781;58.440;15.470;2022-09-03T05:56:20;0.52;;;0.52;;
13419;SDS011;6781;58.440;15.470;2022-09-03T05:58:50;0.60;;;0.60;;
13419;SDS011;6781;58.440;15.470;2022-09-03T06:01:19;0.82;;;0.65;;
13419;SDS011;6781;58.440;15.470;2022-09-03T06:03:52;0.65;;;0.60;;
13419;SDS011;6781;58.440;15.470;2022-09-03T06:06:22;1.20;;;0.60;;
13419;SDS011;6781;58.440;15.470;2022-09-03T06:08:51;0.70;;;0.70;;
13419;SDS011;6781;58.440;15.470;2022-09-03T06:11:22;0.98;;;0.98;;
13419;SDS011;6781;58.440;15.470;2022-09-03T06:14:04;1.88;;;0.90;;
13419;SDS011;6781;58.440;15.470;2022-09-03T06:16:33;0.75;;;0.75;;
13419;SDS011;6781;58.440;15.470;2022-09-03T06:19:02;1.02;;;1.02;;
13419;SDS011;6781;58.440;15.470;2022-09-03T06:21:33;1.38;;;0.60;;
13419;SDS011;6781;58.440;15.470;2022-09-03T06:24:01;1.20;;;1.10;;
13419;SDS011;6781;58.440;15.470;2022-09-03T06:26:28;3.20;;;1.20;;
13419;SDS011;6781;58.440;15.470;2022-09-03T06:28:55;2.03;;;1.05;;
13419;SDS011;6781;58.440;15.470;2022-09-03T06:31:25;1.10;;;1.10;;
13419;SDS011;6781;58.440;15.470;2022-09-03T06:33:52;0.90;;;0.90;;
13419;SDS011;6781;58.440;15.470;2022-09-03T06:36:20;0.52;;;0.52;;
13419;SDS011;6781;58.440;15.470;2022-09-03T06:38:50;0.88;;;0.88;;
13419;SDS011;6781;58.440;15.470;2022-09-03T06:41:19;0.70;;;0.70;;
13419;SDS011;6781;58.440;15.470;2022-09-03T06:43:49;1.17;;;1.10;;
13419;SDS011;6781;58.440;15.470;2022-09-03T06:46:18;1.17;;;1.10;;
13419;SDS011;6781;58.440;15.470;2022-09-03T06:48:48;1.80;;;1.70;;
13419;SDS011;6781;58.440;15.470;2022-09-03T06:51:18;1.40;;;1.30;;
13419;SDS011;6781;58.440;15.470;2022-09-03T06:53:47;1.00;;;1.00;;
13419;SDS011;6781;58.440;15.470;2022-09-03T06:56:15;1.30;;;1.30;;
13419;SDS011;6781;58.440;15.470;2022-09-03T06:58:44;1.00;;;0.90;;
13419;SDS011;6781;58.440;15.470;2022-09-03T07:01:14;0.80;;;0.80;;
13419;SDS011;6781;58.440;15.470;2022-09-03T07:03:43;0.90;;;0.90;;
13419;SDS011;6781;58.440;15.470;2022-09-03T07:06:14;0.65;;;0.65;;
13419;SDS011;6781;58.440;15.470;2022-09-03T07:08:42;2.22;;;1.02;;
13419;SDS011;6781;58.440;15.470;2022-09-03T07:11:12;1.25;;;0.80;;
13419;SDS011;6781;58.440;15.470;2022-09-03T07:13:42;0.60;;;0.60;;
13419;SDS011;6781;58.440;15.470;2022-09-03T07:16:12;1.10;;;1.00;;
13419;SDS011;6781;58.440;15.470;2022-09-03T07:18:40;0.90;;;0.90;;
13419;SDS011;6781;58.440;15.470;2022-09-03T07:21:09;1.13;;;1.05;;
13419;SDS011;6781;58.440;15.470;2022-09-03T07:23:45;1.42;;;0.70;;
13419;SDS011;6781;58.440;15.470;2022-09-03T07:26:13;2.38;;;0.75;;
13419;SDS011;6781;58.440;15.470;2022-09-03T07:28:44;0.95;;;0.63;;
13419;SDS011;6781;58.440;15.470;2022-09-03T07:31:12;0.60;;;0.60;;
13419;SDS011;6781;58.440;15.470;2022-09-03T07:33:40;0.80;;;0.80;;
13419;SDS011;6781;58.440;15.470;2022-09-03T07:36:09;0.70;;;0.60;;
13419;SDS011;6781;58.440;15.470;2022-09-03T07:38:38;0.50;;;0.50;;
13419;SDS011;6781;58.440;15.470;2022-09-03T07:44:08;0.57;;;0.47;;
13419;SDS011;6781;58.440;15.470;2022-09-03T07:46:51;1.27;;;0.65;;
13419;SDS011;6781;58.440;15.470;2022-09-03T07:49:32;0.43;;;0.32;;
13419;SDS011;6781;58.440;15.470;2022-09-03T07:52:12;0.30;;;0.30;;
13419;SDS011;6781;58.440;15.470;2022-09-03T07:54:53;0.40;;;0.40;;
13419;SDS011;6781;58.440;15.470;2022-09-03T08:00:41;0.50;;;0.50;;
13419;SDS011;6781;58.440;15.470;2022-09-03T08:03:09;0.40;;;0.40;;
13419;SDS011;6781;58.440;15.470;2022-09-03T08:05:37;0.47;;;0.40;;
13419;SDS011;6781;58.440;15.470;2022-09-03T08:08:17;0.40;;;0.40;;
13419;SDS011;6781;58.440;15.470;2022-09-03T08:11:02;0.75;;;0.40;;
13419;SDS011;6781;58.440;15.470;2022-09-03T08:13:32;0.70;;;0.50;;
13419;SDS011;6781;58.440;15.470;2022-09-03T08:16:01;0.40;;;0.40;;
13419;SDS011;6781;58.440;15.470;2022-09-03T08:18:29;1.88;;;0.40;;
13419;SDS011;6781;58.440;15.470;2022-09-03T08:21:02;0.95;;;0.40;;
13419;SDS011;6781;58.440;15.470;2022-09-03T08:23:31;0.77;;;0.40;;
13419;SDS011;6781;58.440;15.470;2022-09-03T08:25:58;0.40;;;0.40;;
13419;SDS011;6781;58.440;15.470;2022-09-03T08:28:26;0.85;;;0.65;;
13419;SDS011;6781;58.440;15.470;2022-09-03T08:37:03;0.52;;;0.50;;
13419;SDS011;6781;58.440;15.470;2022-09-03T08:39:36;0.50;;;0.50;;
13419;SDS011;6781;58.440;15.470;2022-09-03T08:42:12;0.55;;;0.40;;
13419;SDS011;6781;58.440;15.470;2022-09-03T08:45:10;3.33;;;0.90;;
13419;SDS011;6781;58.440;15.470;2022-09-03T08:47:44;0.70;;;0.70;;
13419;SDS011;6781;58.440;15.470;2022-09-03T08:50:21;0.40;;;0.40;;
13419;SDS011;6781;58.440;15.470;2022-09-03T08:53:06;0.55;;;0.52;;
13419;SDS011;6781;58.440;15.470;2022-09-03T08:55:52;1.52;;;0.50;;
13419;SDS011;6781;58.440;15.470;2022-09-03T08:58:37;0.30;;;0.30;;
13419;SDS011;6781;58.440;15.470;2022-09-03T09:01:22;0.30;;;0.30;;
13419;SDS011;6781;58.440;15.470;2022-09-03T09:04:14;0.40;;;0.38;;
13419;SDS011;6781;58.440;15.470;2022-09-03T09:09:53;1.23;;;0.40;;
13419;SDS011;6781;58.440;15.470;2022-09-03T09:12:30;0.50;;;0.30;;
13419;SDS011;6781;58.440;15.470;2022-09-03T09:15:07;0.32;;;0.28;;
13419;SDS011;6781;58.440;15.470;2022-09-03T09:17:44;0.45;;;0.40;;
13419;SDS011;6781;58.440;15.470;2022-09-03T09:20:35;0.20;;;0.20;;
13419;SDS011;6781;58.440;15.470;2022-09-03T09:26:20;0.20;;;0.20;;
13419;SDS011;6781;58.440;15.470;2022-09-03T09:29:03;0.95;;;0.40;;
13419;SDS011;6781;58.440;15.470;2022-09-03T09:31:47;0.60;;;0.32;;
13419;SDS011;6781;58.440;15.470;2022-09-03T09:34:15;0.40;;;0.40;;
13419;SDS011;6781;58.440;15.470;2022-09-03T09:36:45;0.40;;;0.40;;
13419;SDS011;6781;58.440;15.470;2022-09-03T09:39:14;0.32;;;0.32;;
13419;SDS011;6781;58.440;15.470;2022-09-03T09:41:53;1.52;;;0.40;;
13419;SDS011;6781;58.440;15.470;2022-09-03T09:44:26;0.70;;;0.40;;
13419;SDS011;6781;58.440;15.470;2022-09-03T09:47:09;1.67;;;0.35;;
13419;SDS011;6781;58.440;15.470;2022-09-03T09:49:42;0.30;;;0.30;;
13419;SDS011;6781;58.440;15.470;2022-09-03T09:52:33;1.30;;;0.40;;
13419;SDS011;6781;58.440;15.470;2022-09-03T09:55:14;0.45;;;0.45;;
13419;SDS011;6781;58.440;15.470;2022-09-03T10:07:03;0.45;;;0.32;;
13419;SDS011;6781;58.440;15.470;2022-09-03T10:09:59;0.28;;;0.28;;
13419;SDS011;6781;58.440;15.470;2022-09-03T10:12:42;0.40;;;0.40;;
13419;SDS011;6781;58.440;15.470;2022-09-03T10:15:26;0.38;;;0.38;;
13419;SDS011;6781;58.440;15.470;2022-09-03T10:18:14;0.50;;;0.50;;
13419;SDS011;6781;58.440;15.470;2022-09-03T10:21:02;0.70;;;0.50;;
13419;SDS011;6781;58.440;15.470;2022-09-03T10:23:38;0.65;;;0.40;;
13419;SDS011;6781;58.440;15.470;2022-09-03T10:26:22;0.57;;;0.40;;
13419;SDS011;6781;58.440;15.470;2022-09-03T10:29:03;0.45;;;0.45;;
13419;SDS011;6781;58.440;15.470;2022-09-03T10:34:47;0.35;;;0.35;;
13419;SDS011;6781;58.440;15.470;2022-09-03T10:37:42;0.98;;;0.40;;
13419;SDS011;6781;58.440;15.470;2022-09-03T10:40:28;0.70;;;0.40;;
13419;SDS011;6781;58.440;15.470;2022-09-03T10:43:18;0.50;;;0.50;;
13419;SDS011;6781;58.440;15.470;2022-09-03T10:46:06;0.30;;;0.30;;
13419;SDS011;6781;58.440;15.470;2022-09-03T10:48:57;0.40;;;0.40;;
13419;SDS011;6781;58.440;15.470;2022-09-03T10:51:38;1.30;;;0.47;;
13419;SDS011;6781;58.440;15.470;2022-09-03T10:54:26;0.40;;;0.40;;
13419;SDS011;6781;58.440;15.470;2022-09-03T10:57:12;1.73;;;0.47;;
13419;SDS011;6781;58.440;15.470;2022-09-03T11:00:05;0.73;;;0.52;;
13419;SDS011;6781;58.440;15.470;2022-09-03T11:02:56;0.88;;;0.50;;
13419;SDS011;6781;58.440;15.470;2022-09-03T11:05:53;2.35;;;0.60;;
13419;SDS011;6781;58.440;15.470;2022-09-03T11:08:27;0.40;;;0.40;;
13419;SDS011;6781;58.440;15.470;2022-09-03T11:14:01;1.70;;;0.52;;
13419;SDS011;6781;58.440;15.470;2022-09-03T11:16:36;0.45;;;0.45;;
13419;SDS011;6781;58.440;15.470;2022-09-03T11:19:08;1.95;;;0.50;;
13419;SDS011;6781;58.440;15.470;2022-09-03T11:21:52;0.60;;;0.60;;
13419;SDS011;6781;58.440;15.470;2022-09-03T11:24:34;0.57;;;0.50;;
13419;SDS011;6781;58.440;15.470;2022-09-03T11:27:09;0.55;;;0.50;;
13419;SDS011;6781;58.440;15.470;2022-09-03T11:32:48;0.50;;;0.50;;
13419;SDS011;6781;58.440;15.470;2022-09-03T11:35:23;0.50;;;0.50;;
13419;SDS011;6781;58.440;15.470;2022-09-03T11:37:53;0.50;;;0.50;;
13419;SDS011;6781;58.440;15.470;2022-09-03T11:40:31;0.77;;;0.50;;
13419;SDS011;6781;58.440;15.470;2022-09-03T11:43:07;0.60;;;0.60;;
13419;SDS011;6781;58.440;15.470;2022-09-03T11:45:41;0.50;;;0.50;;
13419;SDS011;6781;58.440;15.470;2022-09-03T11:48:18;1.75;;;0.63;;
13419;SDS011;6781;58.440;15.470;2022-09-03T11:51:02;0.57;;;0.50;;
13419;SDS011;6781;58.440;15.470;2022-09-03T11:53:33;1.63;;;0.60;;
13419;SDS011;6781;58.440;15.470;2022-09-03T11:56:11;1.45;;;0.50;;
13419;SDS011;6781;58.440;15.470;2022-09-03T11:58:58;0.63;;;0.30;;
13419;SDS011;6781;58.440;15.470;2022-09-03T12:01:45;0.57;;;0.38;;
13419;SDS011;6781;58.440;15.470;2022-09-03T12:04:38;0.52;;;0.52;;
13419;SDS011;6781;58.440;15.470;2022-09-03T12:07:30;0.43;;;0.43;;
13419;SDS011;6781;58.440;15.470;2022-09-03T12:10:22;0.93;;;0.40;;
13419;SDS011;6781;58.440;15.470;2022-09-03T12:13:23;0.45;;;0.40;;
13419;SDS011;6781;58.440;15.470;2022-09-03T12:16:05;0.70;;;0.40;;
13419;SDS011;6781;58.440;15.470;2022-09-03T12:18:53;0.40;;;0.40;;
13419;SDS011;6781;58.440;15.470;2022-09-03T12:21:23;0.65;;;0.50;;
13419;SDS011;6781;58.440;15.470;2022-09-03T12:24:09;1.75;;;0.47;;
13419;SDS011;6781;58.440;15.470;2022-09-03T12:26:51;0.30;;;0.30;;
13419;SDS011;6781;58.440;15.470;2022-09-03T12:29:21;0.65;;;0.60;;
13419;SDS011;6781;58.440;15.470;2022-09-03T12:31:50;0.75;;;0.50;;
13419;SDS011;6781;58.440;15.470;2022-09-03T12:40:26;0.40;;;0.30;;
13419;SDS011;6781;58.440;15.470;2022-09-03T12:43:10;0.40;;;0.40;;
13419;SDS011;6781;58.440;15.470;2022-09-03T12:45:42;0.90;;;0.40;;
13419;SDS011;6781;58.440;15.470;2022-09-03T12:48:15;0.52;;;0.52;;
13419;SDS011;6781;58.440;15.470;2022-09-03T12:50:47;0.43;;;0.43;;
13419;SDS011;6781;58.440;15.470;2022-09-03T12:53:42;0.60;;;0.60;;
13419;SDS011;6781;58.440;15.470;2022-09-03T12:56:23;0.80;;;0.50;;
13419;SDS011;6781;58.440;15.470;2022-09-03T12:59:05;0.57;;;0.38;;
13419;SDS011;6781;58.440;15.470;2022-09-03T13:01:39;1.30;;;0.40;;
13419;SDS011;6781;58.440;15.470;2022-09-03T13:04:24;0.80;;;0.38;;
13419;SDS011;6781;58.440;15.470;2022-09-03T13:07:10;0.40;;;0.40;;
13419;SDS011;6781;58.440;15.470;2022-09-03T13:09:44;0.50;;;0.40;;
13419;SDS011;6781;58.440;15.470;2022-09-03T13:12:20;0.93;;;0.50;;
13419;SDS011;6781;58.440;15.470;2022-09-03T13:14:49;1.98;;;0.52;;
13419;SDS011;6781;58.440;15.470;2022-09-03T13:17:20;0.35;;;0.35;;
13419;SDS011;6781;58.440;15.470;2022-09-03T13:20:13;0.63;;;0.63;;
13419;SDS011;6781;58.440;15.470;2022-09-03T13:23:01;0.43;;;0.43;;
13419;SDS011;6781;58.440;15.470;2022-09-03T13:26:06;0.60;;;0.43;;
13419;SDS011;6781;58.440;15.470;2022-09-03T13:28:48;0.82;;;0.60;;
13419;SDS011;6781;58.440;15.470;2022-09-03T13:31:42;0.85;;;0.50;;
13419;SDS011;6781;58.440;15.470;2022-09-03T13:34:29;2.75;;;0.60;;
13419;SDS011;6781;58.440;15.470;2022-09-03T13:37:06;0.30;;;0.30;;
13419;SDS011;6781;58.440;15.470;2022-09-03T13:39:45;0.60;;;0.60;;
13419;SDS011;6781;58.440;15.470;2022-09-03T13:42:21;0.63;;;0.55;;
13419;SDS011;6781;58.440;15.470;2022-09-03T13:44:57;0.50;;;0.50;;
13419;SDS011;6781;58.440;15.470;2022-09-03T13:47:32;0.30;;;0.30;;
13419;SDS011;6781;58.440;15.470;2022-09-03T13:50:27;1.85;;;0.60;;
13419;SDS011;6781;58.440;15.470;2022-09-03T13:53:03;0.52;;;0.52;;
13419;SDS011;6781;58.440;15.470;2022-09-03T13:55:50;0.40;;;0.40;;
13419;SDS011;6781;58.440;15.470;2022-09-03T13:58:25;0.30;;;0.30;;
13419;SDS011;6781;58.440;15.470;2022-09-03T14:01:03;0.50;;;0.50;;
13419;SDS011;6781;58.440;15.470;2022-09-03T14:03:42;0.63;;;0.63;;
13419;SDS011;6781;58.440;15.470;2022-09-03T14:06:13;0.98;;;0.52;;
13419;SDS011;6781;58.440;15.470;2022-09-03T14:08:58;1.02;;;0.57;;
13419;SDS011;6781;58.440;15.470;2022-09-03T14:11:51;0.45;;;0.45;;
13419;SDS011;6781;58.440;15.470;2022-09-03T14:17:30;0.50;;;0.40;;
13419;SDS011;6781;58.440;15.470;2022-09-03T14:20:19;1.10;;;0.40;;
13419;SDS011;6781;58.440;15.470;2022-09-03T14:22:52;0.73;;;0.50;;
13419;SDS011;6781;58.440;15.470;2022-09-03T14:25:38;1.42;;;0.70;;
13419;SDS011;6781;58.440;15.470;2022-09-03T14:28:24;0.70;;;0.50;;
13419;SDS011;6781;58.440;15.470;2022-09-03T14:31:06;0.65;;;0.50;;
13419;SDS011;6781;58.440;15.470;2022-09-03T14:33:54;1.10;;;0.52;;
13419;SDS011;6781;58.440;15.470;2022-09-03T14:36:44;0.50;;;0.50;;
13419;SDS011;6781;58.440;15.470;2022-09-03T14:39:33;1.48;;;0.73;;
13419;SDS011;6781;58.440;15.470;2022-09-03T14:55:16;0.70;;;0.60;;
13419;SDS011;6781;58.440;15.470;2022-09-03T14:58:02;1.15;;;0.60;;
13419;SDS011;6781;58.440;15.470;2022-09-03T15:00:50;0.60;;;0.50;;
13419;SDS011;6781;58.440;15.470;2022-09-03T15:06:31;0.75;;;0.50;;
13419;SDS011;6781;58.440;15.470;2022-09-03T15:09:27;0.73;;;0.63;;
13419;SDS011;6781;58.440;15.470;2022-09-03T15:12:21;0.90;;;0.70;;
13419;SDS011;6781;58.440;15.470;2022-09-03T15:15:04;0.77;;;0.52;;
13419;SDS011;6781;58.440;15.470;2022-09-03T15:18:01;0.82;;;0.63;;
13419;SDS011;6781;58.440;15.470;2022-09-03T15:20:56;1.95;;;0.70;;
13419;SDS011;6781;58.440;15.470;2022-09-03T15:24:15;1.27;;;0.60;;
13419;SDS011;6781;58.440;15.470;2022-09-03T15:27:11;1.23;;;0.65;;
13419;SDS011;6781;58.440;15.470;2022-09-03T15:29:59;1.50;;;0.60;;
13419;SDS011;6781;58.440;15.470;2022-09-03T15:32:37;1.95;;;0.63;;
13419;SDS011;6781;58.440;15.470;2022-09-03T15:38:41;1.60;;;0.70;;
13419;SDS011;6781;58.440;15.470;2022-09-03T15:44:12;1.00;;;0.80;;
13419;SDS011;6781;58.440;15.470;2022-09-03T15:46:56;1.70;;;0.80;;
13419;SDS011;6781;58.440;15.470;2022-09-03T15:49:45;1.17;;;0.73;;
13419;SDS011;6781;58.440;15.470;2022-09-03T15:52:29;0.70;;;0.70;;
13419;SDS011;6781;58.440;15.470;2022-09-03T15:55:22;0.95;;;0.85;;
13419;SDS011;6781;58.440;15.470;2022-09-03T15:58:09;0.70;;;0.70;;
13419;SDS011;6781;58.440;15.470;2022-09-03T16:00:57;0.60;;;0.60;;
13419;SDS011;6781;58.440;15.470;2022-09-03T16:03:42;0.88;;;0.60;;
13419;SDS011;6781;58.440;15.470;2022-09-03T16:06:42;0.85;;;0.60;;
13419;SDS011;6781;58.440;15.470;2022-09-03T16:09:21;1.15;;;0.60;;
13419;SDS011;6781;58.440;15.470;2022-09-03T16:11:58;0.55;;;0.47;;
13419;SDS011;6781;58.440;15.470;2022-09-03T16:14:45;0.60;;;0.60;;
13419;SDS011;6781;58.440;15.470;2022-09-03T16:17:34;1.67;;;0.47;;
13419;SDS011;6781;58.440;15.470;2022-09-03T16:20:15;1.58;;;0.68;;
13419;SDS011;6781;58.440;15.470;2022-09-03T16:22:54;1.45;;;0.50;;
13419;SDS011;6781;58.440;15.470;2022-09-03T16:25:44;0.50;;;0.50;;
13419;SDS011;6781;58.440;15.470;2022-09-03T16:28:16;0.88;;;0.65;;
13419;SDS011;6781;58.440;15.470;2022-09-03T16:30:50;1.10;;;0.60;;
13419;SDS011;6781;58.440;15.470;2022-09-03T16:33:48;0.80;;;0.60;;
13419;SDS011;6781;58.440;15.470;2022-09-03T16:36:30;0.57;;;0.57;;
13419;SDS011;6781;58.440;15.470;2022-09-03T16:39:08;0.88;;;0.47;;
13419;SDS011;6781;58.440;15.470;2022-09-03T16:41:42;1.13;;;0.63;;
13419;SDS011;6781;58.440;15.470;2022-09-03T16:44:16;0.60;;;0.60;;
13419;SDS011;6781;58.440;15.470;2022-09-03T16:46:52;0.90;;;0.90;;
13419;SDS011;6781;58.440;15.470;2022-09-03T16:49:46;1.63;;;1.20;;
13419;SDS011;6781;58.440;15.470;2022-09-03T16:52:26;1.77;;;1.65;;
13419;SDS011;6781;58.440;15.470;2022-09-03T16:55:05;1.70;;;1.60;;